Time;durP1;ratioP1;P1;durP2;ratioP2;P2;SDS_P1;SDS_P2;PMS_P1;PMS_P2;Temp;Humidity;BMP_temperature;BMP_pressure;BME280_temperature;BME280_humidity;BME280_pressure;Samples;Min_cycle;Max_cycle;Signal;HPM_P1;HPM_P2
2022/12/16 00:02:32;;;;;;;12.10;6.00;;;;;;;;;;10286761;28;20121;-84
2022/12/16 00:07:35;;;;;;;15.63;7.05;;;;;;;;;;10294914;28;20097;-84
2022/12/16 00:12:40;;;;;;;12.05;5.47;;;;;;;;;;10293035;28;20110;-85
2022/12/16 00:17:44;;;;;;;12.55;5.97;;;;;;;;;;10286905;28;20479;-85
2022/12/16 00:22:47;;;;;;;13.70;5.63;;;;;;;;;;10297295;28;20042;-84
2022/12/16 00:27:52;;;;;;;13.25;6.28;;;;;;;;;;10312559;28;20058;-84
2022/12/16 00:32:58;;;;;;;14.07;6.00;;;;;;;;;;10290241;28;20055;-84
2022/12/16 00:38:02;;;;;;;15.18;5.97;;;;;;;;;;10292839;28;20145;-83
2022/12/16 00:43:06;;;;;;;19.35;7.63;;;;;;;;;;10284015;28;20602;-82
2022/12/16 00:48:10;;;;;;;13.73;5.97;;;;;;;;;;10268412;28;20058;-82
2022/12/16 00:53:14;;;;;;;10.20;5.57;;;;;;;;;;10271303;28;20434;-82
2022/12/16 00:58:18;;;;;;;14.15;6.45;;;;;;;;;;10305821;28;20042;-83
2022/12/16 01:03:22;;;;;;;14.60;6.72;;;;;;;;;;10276058;28;20039;-83
2022/12/16 01:08:25;;;;;;;17.58;7.40;;;;;;;;;;10299997;28;20072;-82
2022/12/16 01:13:30;;;;;;;19.20;8.38;;;;;;;;;;10300456;28;20062;-83
2022/12/16 01:18:34;;;;;;;14.90;6.75;;;;;;;;;;10269097;28;20100;-83
2022/12/16 01:23:37;;;;;;;15.35;6.60;;;;;;;;;;10292431;28;20050;-84
2022/12/16 01:28:42;;;;;;;11.07;5.40;;;;;;;;;;10288199;28;20111;-84
2022/12/16 01:33:46;;;;;;;13.32;5.78;;;;;;;;;;10307566;28;20047;-84
2022/12/16 01:38:50;;;;;;;12.82;6.25;;;;;;;;;;10289557;28;20042;-84
2022/12/16 01:44:16;;;;;;;11.63;5.35;;;;;;;;;;10283986;28;20055;-82
2022/12/16 01:49:24;;;;;;;9.98;4.72;;;;;;;;;;10291163;28;20038;-84
2022/12/16 01:54:31;;;;;;;9.27;4.43;;;;;;;;;;10283532;28;20047;-83
2022/12/16 01:59:39;;;;;;;12.23;6.10;;;;;;;;;;10274376;28;20571;-83
2022/12/16 02:05:19;;;;;;;12.23;5.93;;;;;;;;;;10257129;28;20046;-82
2022/12/16 02:10:10;;;;;;;11.25;4.55;;;;;;;;;;10293619;28;20165;-84
2022/12/16 02:15:32;;;;;;;8.25;4.38;;;;;;;;;;10270677;28;20536;-84
2022/12/16 02:21:02;;;;;;;8.77;4.45;;;;;;;;;;10296437;28;20080;-84
2022/12/16 02:26:35;;;;;;;13.68;6.38;;;;;;;;;;10290040;28;20594;-82
2022/12/16 02:31:45;;;;;;;12.52;6.28;;;;;;;;;;10291468;28;20052;-83
2022/12/16 02:37:04;;;;;;;9.60;5.05;;;;;;;;;;10264278;28;20042;-83
2022/12/16 02:42:15;;;;;;;8.20;4.40;;;;;;;;;;10281594;28;20056;-82
2022/12/16 02:47:20;;;;;;;9.43;4.47;;;;;;;;;;10267806;28;20043;-82
2022/12/16 02:52:26;;;;;;;6.97;4.00;;;;;;;;;;10274008;28;20077;-83
2022/12/16 02:58:06;;;;;;;9.75;5.22;;;;;;;;;;10280343;28;20038;-83
2022/12/16 03:03:16;;;;;;;8.35;4.63;;;;;;;;;;10193502;28;20051;-83
2022/12/16 03:08:24;;;;;;;11.43;5.05;;;;;;;;;;10255746;28;20038;-82
2022/12/16 03:13:32;;;;;;;7.43;4.50;;;;;;;;;;10262633;28;20074;-82
2022/12/16 03:18:41;;;;;;;7.95;4.05;;;;;;;;;;10265459;28;20833;-82
2022/12/16 03:23:51;;;;;;;9.02;4.47;;;;;;;;;;10295552;28;20058;-82
2022/12/16 03:29:00;;;;;;;8.20;4.70;;;;;;;;;;10271472;28;20114;-82
2022/12/16 03:34:11;;;;;;;9.30;5.15;;;;;;;;;;10275036;28;20055;-82
2022/12/16 03:39:16;;;;;;;10.27;5.03;;;;;;;;;;10286490;28;20494;-85
2022/12/16 03:44:21;;;;;;;11.45;5.82;;;;;;;;;;10291606;28;20041;-84
2022/12/16 03:49:26;;;;;;;9.32;4.90;;;;;;;;;;10290664;28;20125;-88
2022/12/16 03:54:30;;;;;;;10.57;4.83;;;;;;;;;;10280403;28;20071;-87
2022/12/16 03:59:33;;;;;;;12.90;6.10;;;;;;;;;;10317775;28;20655;-87
2022/12/16 04:04:38;;;;;;;12.40;6.15;;;;;;;;;;10276497;28;20849;-83
2022/12/16 04:09:41;;;;;;;11.77;5.82;;;;;;;;;;10280026;28;20053;-82
2022/12/16 04:25:37;;;;;;;8.32;4.18;;;;;;;;;;10284730;28;20046;-85
2022/12/16 04:30:40;;;;;;;9.13;4.82;;;;;;;;;;10285949;28;20048;-83
